createdAt,value
2022-09-03T00:01:59.293Z,19.03
2022-09-03T00:07:06.310Z,18.99
2022-09-03T00:12:26.293Z,18.92
2022-09-03T00:17:32.597Z,18.97
2022-09-03T00:22:40.063Z,19.02
2022-09-03T00:27:45.157Z,19.02
2022-09-03T00:32:50.568Z,18.97
2022-09-03T00:37:53.448Z,18.86
2022-09-03T00:43:08.140Z,18.75
2022-09-03T00:48:28.254Z,18.71
2022-09-03T00:53:57.975Z,18.66
2022-09-03T00:59:03.922Z,18.59
2022-09-03T01:04:48.433Z,18.57
2022-09-03T01:10:06.530Z,18.58
2022-09-03T01:15:20.932Z,18.52
2022-09-03T01:20:45.606Z,18.47
2022-09-03T01:25:49.978Z,18.44
2022-09-03T01:31:02.710Z,18.41
2022-09-03T01:36:32.176Z,18.34
2022-09-03T01:42:13.417Z,18.36
2022-09-03T01:47:22.277Z,18.30
2022-09-03T01:52:50.585Z,18.16
2022-09-03T01:58:01.708Z,18.06
2022-09-03T02:03:07.029Z,17.95
2022-09-03T02:08:11.618Z,17.92
2022-09-03T02:13:27.093Z,17.88
2022-09-03T02:18:41.381Z,17.84
2022-09-03T02:23:43.290Z,17.84
2022-09-03T02:28:45.333Z,17.91
2022-09-03T02:33:49.073Z,17.94
2022-09-03T02:38:50.641Z,17.87
2022-09-03T02:43:59.106Z,17.92
2022-09-03T02:49:00.677Z,17.85
2022-09-03T02:54:02.408Z,17.78
2022-09-03T02:59:06.010Z,17.76
2022-09-03T03:04:07.501Z,17.67
2022-09-03T03:09:09.105Z,17.55
2022-09-03T03:14:10.703Z,17.46
2022-09-03T03:19:12.472Z,17.45
2022-09-03T03:24:14.559Z,17.43
2022-09-03T03:29:20.617Z,17.43
2022-09-03T03:34:22.107Z,17.37
2022-09-03T03:39:23.634Z,17.35
2022-09-03T03:44:25.144Z,17.39
2022-09-03T03:49:26.691Z,17.43
2022-09-03T03:54:28.183Z,17.44
2022-09-03T03:59:29.662Z,17.42
2022-09-03T04:04:31.222Z,17.42
2022-09-03T04:09:32.915Z,17.33
2022-09-03T04:14:38.443Z,17.23
2022-09-03T04:19:39.949Z,17.16
2022-09-03T04:24:41.450Z,17.08
2022-09-03T04:29:42.926Z,17.06
2022-09-03T04:34:44.423Z,17.06
2022-09-03T04:39:46.195Z,17.05
2022-09-03T04:44:47.717Z,17.07
2022-09-03T04:49:49.197Z,17.05
2022-09-03T04:54:51.122Z,16.98
2022-09-03T04:59:52.605Z,16.84
2022-09-03T05:04:54.222Z,16.79
2022-09-03T05:09:55.964Z,16.64
2022-09-03T05:14:57.453Z,16.57
2022-09-03T05:19:58.950Z,16.56
2022-09-03T05:25:00.693Z,16.52
2022-09-03T05:30:02.182Z,16.46
2022-09-03T05:35:04.245Z,16.40
2022-09-03T05:40:06.400Z,16.39
2022-09-03T05:45:10.971Z,16.34
2022-09-03T05:50:12.551Z,16.32
2022-09-03T05:55:14.140Z,16.34
2022-09-03T06:00:19.617Z,16.33
2022-09-03T06:05:21.279Z,16.33
2022-09-03T06:10:26.652Z,16.41
2022-09-03T06:15:30.756Z,16.51
2022-09-03T06:20:36.792Z,16.52
2022-09-03T06:25:38.835Z,16.56
2022-09-03T06:30:41.853Z,16.57
2022-09-03T06:35:44.141Z,16.73
2022-09-03T06:40:52.618Z,16.92
2022-09-03T06:45:59.036Z,17.00
2022-09-03T06:51:06.420Z,17.12
2022-09-03T06:56:12.288Z,17.23
2022-09-03T07:01:19.411Z,17.32
2022-09-03T07:06:21.745Z,17.44
2022-09-03T07:11:26.809Z,17.59
2022-09-03T07:16:35.462Z,17.66
2022-09-03T07:21:37.419Z,17.61
2022-09-03T07:26:41.001Z,17.66
2022-09-03T07:31:43.498Z,17.78
2022-09-03T07:36:48.725Z,17.86
2022-09-03T07:41:50.794Z,17.75
2022-09-03T07:46:52.516Z,17.77
2022-09-03T07:51:54.603Z,17.82
2022-09-03T07:56:56.838Z,17.94
2022-09-03T08:01:59.085Z,17.83
2022-09-03T08:07:00.669Z,17.96
2022-09-03T08:12:02.332Z,18.04
2022-09-03T08:17:03.940Z,18.14
2022-09-03T08:22:05.811Z,18.36
2022-09-03T08:27:07.480Z,18.55
2022-09-03T08:32:08.956Z,18.60
2022-09-03T08:37:10.673Z,18.57
2022-09-03T08:42:38.445Z,18.72
2022-09-03T08:47:50.094Z,18.65
2022-09-03T08:52:57.699Z,18.75
2022-09-03T08:58:10.061Z,18.86
2022-09-03T09:03:31.184Z,19.00
2022-09-03T09:08:32.617Z,19.32
2022-09-03T09:13:39.238Z,19.50
2022-09-03T09:19:14.483Z,19.79
2022-09-03T09:24:27.234Z,19.86
2022-09-03T09:29:32.933Z,19.96
2022-09-03T09:34:38.550Z,20.05
2022-09-03T09:39:42.081Z,20.25
2022-09-03T09:44:43.695Z,20.43
2022-09-03T09:49:59.955Z,20.42
2022-09-03T09:55:15.846Z,20.51
2022-09-03T10:00:18.246Z,20.76
2022-09-03T10:05:26.382Z,20.92
2022-09-03T10:10:34.968Z,20.98
2022-09-03T10:15:46.585Z,21.17
2022-09-03T10:20:58.795Z,21.32
2022-09-03T10:26:07.501Z,21.63
2022-09-03T10:31:18.977Z,21.53
2022-09-03T10:36:39.188Z,21.52
2022-09-03T10:42:03.488Z,21.60
2022-09-03T10:47:23.984Z,21.73
2022-09-03T10:52:38.798Z,21.88
2022-09-03T10:58:04.119Z,22.08
2022-09-03T11:03:38.960Z,22.05
2022-09-03T11:08:49.455Z,22.23
2022-09-03T11:13:57.300Z,22.43
2022-09-03T11:19:08.358Z,22.32
2022-09-03T11:24:23.395Z,22.35
2022-09-03T11:29:39.829Z,22.64
2022-09-03T11:34:47.848Z,22.79
2022-09-03T11:40:16.913Z,22.95
2022-09-03T11:45:27.432Z,22.99
2022-09-03T11:50:33.822Z,22.99
2022-09-03T11:55:54.605Z,23.03
2022-09-03T12:00:58.981Z,23.13
2022-09-03T12:06:49.329Z,23.20
2022-09-03T12:11:56.729Z,23.26
2022-09-03T12:17:04.084Z,23.27
2022-09-03T12:22:05.677Z,23.28
2022-09-03T12:27:13.329Z,23.36
2022-09-03T12:32:16.116Z,23.52
2022-09-03T12:42:46.308Z,23.60
2022-09-03T12:47:47.848Z,23.54
2022-09-03T12:52:54.378Z,23.63
2022-09-03T12:58:02.601Z,23.60
2022-09-03T13:03:13.068Z,23.60
2022-09-03T13:08:29.684Z,23.70
2022-09-03T13:13:33.996Z,23.79
2022-09-03T13:18:44.546Z,23.83
2022-09-03T13:23:48.938Z,23.92
2022-09-03T13:29:15.836Z,24.00
2022-09-03T13:34:24.482Z,24.02
2022-09-03T13:39:38.246Z,24.04
2022-09-03T13:44:50.154Z,24.01
2022-09-03T13:50:23.740Z,24.11
2022-09-03T13:55:31.169Z,24.06
2022-09-03T14:00:52.273Z,24.06
2022-09-03T14:06:07.510Z,24.10
2022-09-03T14:11:32.496Z,24.14
2022-09-03T14:16:51.005Z,24.10
2022-09-03T14:22:07.007Z,24.19
2022-09-03T14:27:08.531Z,24.30
2022-09-03T14:32:27.969Z,24.32
2022-09-03T14:37:42.077Z,24.38
2022-09-03T14:42:49.544Z,24.39
2022-09-03T14:48:15.931Z,24.36
2022-09-03T14:53:26.471Z,24.31
2022-09-03T14:58:48.946Z,24.35
2022-09-03T15:04:05.605Z,24.35
2022-09-03T15:09:28.109Z,24.39
2022-09-03T15:14:46.298Z,24.36
2022-09-03T15:20:12.670Z,24.38
2022-09-03T15:25:38.462Z,24.34
2022-09-03T15:30:54.675Z,24.44
2022-09-03T15:36:18.159Z,24.49
2022-09-03T15:41:34.847Z,24.44
2022-09-03T15:46:49.248Z,24.35
2022-09-03T15:52:10.174Z,24.28
2022-09-03T15:57:21.501Z,24.23
2022-09-03T16:02:54.878Z,24.20
2022-09-03T16:08:19.517Z,24.18
2022-09-03T16:13:56.343Z,24.17
2022-09-03T16:19:10.021Z,24.15
2022-09-03T16:24:32.745Z,24.15
2022-09-03T16:29:34.515Z,24.06
2022-09-03T16:35:14.758Z,24.01
2022-09-03T16:40:53.847Z,23.99
2022-09-03T16:46:06.186Z,23.91
2022-09-03T16:51:28.846Z,23.88
2022-09-03T16:57:07.154Z,23.85
2022-09-03T17:02:40.533Z,23.76
2022-09-03T17:08:14.473Z,23.72
2022-09-03T17:13:31.701Z,23.66
2022-09-03T17:18:35.790Z,23.59
2022-09-03T17:23:59.591Z,23.53
2022-09-03T17:29:36.479Z,23.45
2022-09-03T17:34:58.937Z,23.39
2022-09-03T17:40:08.999Z,23.35
2022-09-03T17:45:47.229Z,23.27
2022-09-03T17:51:17.529Z,23.19
2022-09-03T17:56:49.335Z,23.08
2022-09-03T18:02:22.502Z,22.95
2022-09-03T18:07:43.954Z,22.87
2022-09-03T18:13:24.136Z,22.79
2022-09-03T18:18:31.318Z,22.64
2022-09-03T18:24:06.306Z,22.55
2022-09-03T18:29:33.849Z,22.51
2022-09-03T18:34:55.424Z,22.44
2022-09-03T18:40:15.445Z,22.31
2022-09-03T18:51:49.566Z,22.03
2022-09-03T18:57:11.621Z,21.92
2022-09-03T19:03:03.857Z,21.79
2022-09-03T19:08:39.806Z,21.66
2022-09-03T19:14:00.712Z,21.65
2022-09-03T19:19:49.978Z,21.67
2022-09-03T19:25:12.621Z,21.58
2022-09-03T19:30:51.407Z,21.46
2022-09-03T19:36:19.136Z,21.42
2022-09-03T19:42:06.594Z,21.34
2022-09-03T19:47:30.941Z,21.28
2022-09-03T19:53:03.055Z,21.24
2022-09-03T19:58:42.159Z,21.22
2022-09-03T20:04:02.720Z,21.14
2022-09-03T20:09:28.037Z,21.12
2022-09-03T20:14:32.194Z,21.09
2022-09-03T20:20:03.107Z,21.00
2022-09-03T20:25:24.001Z,20.99
2022-09-03T20:30:35.328Z,20.98
2022-09-03T20:35:48.656Z,20.84
2022-09-03T20:41:26.550Z,20.80
2022-09-03T20:46:58.596Z,20.78
2022-09-03T20:52:10.185Z,20.78
2022-09-03T20:57:36.037Z,20.74
2022-09-03T21:02:48.617Z,20.70
2022-09-03T21:07:58.687Z,20.58
2022-09-03T21:13:38.247Z,20.49
2022-09-03T21:19:03.080Z,20.46
2022-09-03T21:24:12.298Z,20.45
2022-09-03T21:29:29.132Z,20.54
2022-09-03T21:34:34.155Z,20.59
2022-09-03T21:39:51.802Z,20.59
2022-09-03T21:45:07.599Z,20.56
2022-09-03T21:50:18.743Z,20.52
2022-09-03T21:55:41.869Z,20.41
2022-09-03T22:00:45.398Z,20.33
2022-09-03T22:05:57.197Z,20.27
2022-09-03T22:11:10.702Z,20.21
2022-09-03T22:16:25.745Z,20.21
2022-09-03T22:22:01.685Z,20.20
2022-09-03T22:27:28.024Z,20.21
2022-09-03T22:33:00.523Z,20.14
2022-09-03T22:38:16.029Z,20.07
2022-09-03T22:43:35.560Z,19.97
2022-09-03T22:48:55.611Z,19.96
2022-09-03T22:54:16.915Z,19.97
2022-09-03T22:59:31.564Z,19.93
2022-09-03T23:05:04.706Z,19.88
2022-09-03T23:10:14.473Z,19.81
2022-09-03T23:15:30.504Z,19.70
2022-09-03T23:20:36.581Z,19.59
2022-09-03T23:25:44.457Z,19.52
2022-09-03T23:30:45.990Z,19.45
2022-09-03T23:36:08.097Z,19.42
2022-09-03T23:41:21.852Z,19.43
2022-09-03T23:46:28.395Z,19.35
2022-09-03T23:51:38.817Z,19.26
2022-09-03T23:56:52.319Z,19.22
